Terminal Aerodrome Forecast
Issued by NWS Portland, OR

Home | Current Version | Previous Version | Text Only | Print | Product List | Glossary On
Versions: 1 2 3 4 5 6 7 8 9 10 11 12 13
000
FTUS46 KPQR 162331
TAFEUG
TAF
KEUG 162331Z 1700/1724 01007KT P6SM SKC
     FM170700 36003KT P6SM SKC
     FM171500 36005KT P6SM SCT030
     FM171800 01009KT P6SM SKC=

USA.gov is the U.S. government's official web portal to all federal, state and local government web resources and services.